sensor_id;sensor_type;location;lat;lon;timestamp;temperature;humidity
11609;DHT22;5860;52.018;8.536;2023-03-01T00:01:29;-2.20;99.90
11609;DHT22;5860;52.018;8.536;2023-03-01T00:03:56;-2.10;99.90
11609;DHT22;5860;52.018;8.536;2023-03-01T00:06:24;-2.10;99.90
11609;DHT22;5860;52.018;8.536;2023-03-01T00:08:52;-2.20;99.90
11609;DHT22;5860;52.018;8.536;2023-03-01T00:11:28;-2.20;99.90
11609;DHT22;5860;52.018;8.536;2023-03-01T00:13:57;-2.30;99.90
11609;DHT22;5860;52.018;8.536;2023-03-01T00:16:36;-2.40;99.90
11609;DHT22;5860;52.018;8.536;2023-03-01T00:19:06;-2.50;99.90
11609;DHT22;5860;52.018;8.536;2023-03-01T00:21:34;-2.40;99.90
11609;DHT22;5860;52.018;8.536;2023-03-01T00:24:02;-2.40;99.90
11609;DHT22;5860;52.018;8.536;2023-03-01T00:26:29;-2.40;99.90
11609;DHT22;5860;52.018;8.536;2023-03-01T00:28:57;-2.50;99.90
11609;DHT22;5860;52.018;8.536;2023-03-01T00:31:27;-2.50;99.90
11609;DHT22;5860;52.018;8.536;2023-03-01T00:33:57;-2.50;99.90
11609;DHT22;5860;52.018;8.536;2023-03-01T00:36:26;-2.50;99.90
11609;DHT22;5860;52.018;8.536;2023-03-01T00:38:54;-2.60;99.90
11609;DHT22;5860;52.018;8.536;2023-03-01T00:41:22;-2.50;99.90
11609;DHT22;5860;52.018;8.536;2023-03-01T00:43:49;-2.60;99.90
11609;DHT22;5860;52.018;8.536;2023-03-01T00:46:19;-2.70;99.90
11609;DHT22;5860;52.018;8.536;2023-03-01T00:48:47;-2.60;99.90
11609;DHT22;5860;52.018;8.536;2023-03-01T00:51:16;-2.50;99.90
11609;DHT22;5860;52.018;8.536;2023-03-01T00:53:44;-2.50;99.90
11609;DHT22;5860;52.018;8.536;2023-03-01T00:56:13;-2.50;99.90
11609;DHT22;5860;52.018;8.536;2023-03-01T00:58:40;-2.30;99.90
11609;DHT22;5860;52.018;8.536;2023-03-01T01:01:09;-2.40;99.90
11609;DHT22;5860;52.018;8.536;2023-03-01T01:06:16;-2.20;99.90
11609;DHT22;5860;52.018;8.536;2023-03-01T01:08:44;-2.40;99.90
11609;DHT22;5860;52.018;8.536;2023-03-01T01:11:12;-2.60;99.90
11609;DHT22;5860;52.018;8.536;2023-03-01T01:13:40;-2.70;99.90
11609;DHT22;5860;52.018;8.536;2023-03-01T01:16:07;-2.70;99.90
11609;DHT22;5860;52.018;8.536;2023-03-01T01:18:35;-2.80;99.90
11609;DHT22;5860;52.018;8.536;2023-03-01T01:21:07;-2.80;99.90
11609;DHT22;5860;52.018;8.536;2023-03-01T01:23:35;-2.80;99.90
11609;DHT22;5860;52.018;8.536;2023-03-01T01:26:30;-2.80;99.90
11609;DHT22;5860;52.018;8.536;2023-03-01T01:28:59;-2.90;99.90
11609;DHT22;5860;52.018;8.536;2023-03-01T01:31:27;-2.80;99.90
11609;DHT22;5860;52.018;8.536;2023-03-01T01:33:55;-2.90;99.90
11609;DHT22;5860;52.018;8.536;2023-03-01T01:36:22;-2.80;99.90
11609;DHT22;5860;52.018;8.536;2023-03-01T01:38:49;-2.90;99.90
11609;DHT22;5860;52.018;8.536;2023-03-01T01:41:17;-2.90;99.90
11609;DHT22;5860;52.018;8.536;2023-03-01T01:46:32;-2.90;99.90
11609;DHT22;5860;52.018;8.536;2023-03-01T01:49:16;-2.90;99.90
11609;DHT22;5860;52.018;8.536;2023-03-01T01:51:46;-2.90;99.90
11609;DHT22;5860;52.018;8.536;2023-03-01T01:54:20;-3.00;99.90
11609;DHT22;5860;52.018;8.536;2023-03-01T01:56:53;-3.00;99.90
11609;DHT22;5860;52.018;8.536;2023-03-01T01:59:23;-3.00;99.90
11609;DHT22;5860;52.018;8.536;2023-03-01T02:01:52;-3.00;99.90
11609;DHT22;5860;52.018;8.536;2023-03-01T02:04:20;-3.10;99.90
11609;DHT22;5860;52.018;8.536;2023-03-01T02:07:01;-3.00;99.90
11609;DHT22;5860;52.018;8.536;2023-03-01T02:09:30;-3.10;99.90
11609;DHT22;5860;52.018;8.536;2023-03-01T02:11:58;-3.10;99.90
11609;DHT22;5860;52.018;8.536;2023-03-01T02:14:25;-3.10;99.90
11609;DHT22;5860;52.018;8.536;2023-03-01T02:16:53;-3.10;99.90
11609;DHT22;5860;52.018;8.536;2023-03-01T02:19:40;-3.10;99.90
11609;DHT22;5860;52.018;8.536;2023-03-01T02:22:25;-3.10;99.90
11609;DHT22;5860;52.018;8.536;2023-03-01T02:27:23;-3.10;99.90
11609;DHT22;5860;52.018;8.536;2023-03-01T02:29:54;-3.10;99.90
11609;DHT22;5860;52.018;8.536;2023-03-01T02:32:23;-3.00;99.90
11609;DHT22;5860;52.018;8.536;2023-03-01T02:34:54;-3.00;99.90
11609;DHT22;5860;52.018;8.536;2023-03-01T02:37:21;-3.10;99.90
11609;DHT22;5860;52.018;8.536;2023-03-01T02:40:04;-3.00;99.90
11609;DHT22;5860;52.018;8.536;2023-03-01T02:42:36;-3.00;99.90
11609;DHT22;5860;52.018;8.536;2023-03-01T02:45:05;-3.10;99.90
11609;DHT22;5860;52.018;8.536;2023-03-01T02:47:32;-3.10;99.90
11609;DHT22;5860;52.018;8.536;2023-03-01T02:50:00;-3.10;99.90
11609;DHT22;5860;52.018;8.536;2023-03-01T02:55:16;-3.10;99.90
11609;DHT22;5860;52.018;8.536;2023-03-01T02:57:45;-3.10;99.90
11609;DHT22;5860;52.018;8.536;2023-03-01T03:00:16;-3.10;99.90
11609;DHT22;5860;52.018;8.536;2023-03-01T03:02:49;-3.20;99.90
11609;DHT22;5860;52.018;8.536;2023-03-01T03:05:19;-3.20;99.90
11609;DHT22;5860;52.018;8.536;2023-03-01T03:07:48;-3.30;99.90
11609;DHT22;5860;52.018;8.536;2023-03-01T03:12:55;-3.30;99.90
11609;DHT22;5860;52.018;8.536;2023-03-01T03:15:23;-3.30;99.90
11609;DHT22;5860;52.018;8.536;2023-03-01T03:17:52;-3.30;99.90
11609;DHT22;5860;52.018;8.536;2023-03-01T03:20:21;-3.30;99.90
11609;DHT22;5860;52.018;8.536;2023-03-01T03:22:54;-3.30;99.90
11609;DHT22;5860;52.018;8.536;2023-03-01T03:25:22;-3.30;99.90
11609;DHT22;5860;52.018;8.536;2023-03-01T03:27:50;-3.40;99.90
11609;DHT22;5860;52.018;8.536;2023-03-01T03:30:28;-3.40;99.90
11609;DHT22;5860;52.018;8.536;2023-03-01T03:32:56;-3.40;99.90
11609;DHT22;5860;52.018;8.536;2023-03-01T03:35:32;-3.40;99.90
11609;DHT22;5860;52.018;8.536;2023-03-01T03:38:04;-3.30;99.90
11609;DHT22;5860;52.018;8.536;2023-03-01T03:40:35;-3.20;99.90
11609;DHT22;5860;52.018;8.536;2023-03-01T03:43:08;-3.20;99.90
11609;DHT22;5860;52.018;8.536;2023-03-01T03:45:35;-3.20;99.90
11609;DHT22;5860;52.018;8.536;2023-03-01T03:48:04;-3.00;99.90
11609;DHT22;5860;52.018;8.536;2023-03-01T03:50:32;-3.00;99.90
11609;DHT22;5860;52.018;8.536;2023-03-01T03:53:05;-3.10;99.90
11609;DHT22;5860;52.018;8.536;2023-03-01T03:55:32;-2.90;99.90
11609;DHT22;5860;52.018;8.536;2023-03-01T03:58:02;-2.90;99.90
11609;DHT22;5860;52.018;8.536;2023-03-01T04:00:35;-3.00;99.90
11609;DHT22;5860;52.018;8.536;2023-03-01T04:03:03;-3.10;99.90
11609;DHT22;5860;52.018;8.536;2023-03-01T04:05:30;-3.10;99.90
11609;DHT22;5860;52.018;8.536;2023-03-01T04:07:58;-3.10;99.90
11609;DHT22;5860;52.018;8.536;2023-03-01T04:10:34;-3.20;99.90
11609;DHT22;5860;52.018;8.536;2023-03-01T04:13:02;-3.10;99.90
11609;DHT22;5860;52.018;8.536;2023-03-01T04:15:30;-3.10;99.90
11609;DHT22;5860;52.018;8.536;2023-03-01T04:17:57;-3.00;99.90
11609;DHT22;5860;52.018;8.536;2023-03-01T04:20:30;-3.00;99.90
11609;DHT22;5860;52.018;8.536;2023-03-01T04:23:00;-3.00;99.90
11609;DHT22;5860;52.018;8.536;2023-03-01T04:25:45;-3.00;99.90
11609;DHT22;5860;52.018;8.536;2023-03-01T04:28:12;-3.10;99.90
11609;DHT22;5860;52.018;8.536;2023-03-01T04:30:39;-3.10;99.90
11609;DHT22;5860;52.018;8.536;2023-03-01T04:33:09;-3.00;99.90
11609;DHT22;5860;52.018;8.536;2023-03-01T04:35:37;-3.10;99.90
11609;DHT22;5860;52.018;8.536;2023-03-01T04:38:05;-3.20;99.90
11609;DHT22;5860;52.018;8.536;2023-03-01T04:40:32;-3.20;99.90
11609;DHT22;5860;52.018;8.536;2023-03-01T04:43:00;-3.30;99.90
11609;DHT22;5860;52.018;8.536;2023-03-01T04:45:27;-3.30;99.90
11609;DHT22;5860;52.018;8.536;2023-03-01T04:47:54;-3.40;99.90
11609;DHT22;5860;52.018;8.536;2023-03-01T04:50:21;-3.40;99.90
11609;DHT22;5860;52.018;8.536;2023-03-01T04:52:51;-3.40;99.90
11609;DHT22;5860;52.018;8.536;2023-03-01T04:55:19;-3.40;99.90
11609;DHT22;5860;52.018;8.536;2023-03-01T04:57:46;-3.40;99.90
11609;DHT22;5860;52.018;8.536;2023-03-01T05:00:13;-3.40;99.90
11609;DHT22;5860;52.018;8.536;2023-03-01T05:05:16;-3.40;99.90
11609;DHT22;5860;52.018;8.536;2023-03-01T05:07:43;-3.50;99.90
11609;DHT22;5860;52.018;8.536;2023-03-01T05:10:10;-3.50;99.90
11609;DHT22;5860;52.018;8.536;2023-03-01T05:12:37;-3.50;99.90
11609;DHT22;5860;52.018;8.536;2023-03-01T05:15:05;-3.60;99.90
11609;DHT22;5860;52.018;8.536;2023-03-01T05:17:34;-3.50;99.90
11609;DHT22;5860;52.018;8.536;2023-03-01T05:20:01;-3.50;99.90
11609;DHT22;5860;52.018;8.536;2023-03-01T05:22:29;-3.60;99.90
11609;DHT22;5860;52.018;8.536;2023-03-01T05:24:56;-3.60;99.90
11609;DHT22;5860;52.018;8.536;2023-03-01T05:27:23;-3.60;99.90
11609;DHT22;5860;52.018;8.536;2023-03-01T05:29:50;-3.60;99.90
11609;DHT22;5860;52.018;8.536;2023-03-01T05:32:17;-3.70;99.90
11609;DHT22;5860;52.018;8.536;2023-03-01T05:34:43;-3.60;99.90
11609;DHT22;5860;52.018;8.536;2023-03-01T05:37:13;-3.60;99.90
11609;DHT22;5860;52.018;8.536;2023-03-01T05:39:40;-3.70;99.90
11609;DHT22;5860;52.018;8.536;2023-03-01T05:42:10;-3.60;99.90
11609;DHT22;5860;52.018;8.536;2023-03-01T05:44:37;-3.60;99.90
11609;DHT22;5860;52.018;8.536;2023-03-01T05:47:04;-3.60;99.90
11609;DHT22;5860;52.018;8.536;2023-03-01T05:49:31;-3.30;99.90
11609;DHT22;5860;52.018;8.536;2023-03-01T05:51:58;-3.40;99.90
11609;DHT22;5860;52.018;8.536;2023-03-01T05:54:25;-3.50;99.90
11609;DHT22;5860;52.018;8.536;2023-03-01T05:56:53;-3.50;99.90
11609;DHT22;5860;52.018;8.536;2023-03-01T05:59:19;-3.60;99.90
11609;DHT22;5860;52.018;8.536;2023-03-01T06:01:46;-3.50;99.90
11609;DHT22;5860;52.018;8.536;2023-03-01T06:04:13;-3.60;99.90
11609;DHT22;5860;52.018;8.536;2023-03-01T06:06:40;-3.40;99.90
11609;DHT22;5860;52.018;8.536;2023-03-01T06:09:07;-3.60;99.90
11609;DHT22;5860;52.018;8.536;2023-03-01T06:11:36;-3.60;99.90
11609;DHT22;5860;52.018;8.536;2023-03-01T06:14:04;-3.60;99.90
11609;DHT22;5860;52.018;8.536;2023-03-01T06:16:33;-3.60;99.90
11609;DHT22;5860;52.018;8.536;2023-03-01T06:18:59;-3.60;99.90
11609;DHT22;5860;52.018;8.536;2023-03-01T06:21:26;-3.60;99.90
11609;DHT22;5860;52.018;8.536;2023-03-01T06:23:53;-3.60;99.90
11609;DHT22;5860;52.018;8.536;2023-03-01T06:26:20;-3.60;99.90
11609;DHT22;5860;52.018;8.536;2023-03-01T06:28:47;-3.60;99.90
11609;DHT22;5860;52.018;8.536;2023-03-01T06:31:14;-3.60;99.90
11609;DHT22;5860;52.018;8.536;2023-03-01T06:33:41;-3.60;99.90
11609;DHT22;5860;52.018;8.536;2023-03-01T06:36:08;-3.60;99.90
11609;DHT22;5860;52.018;8.536;2023-03-01T06:38:37;-3.60;99.90
11609;DHT22;5860;52.018;8.536;2023-03-01T06:41:04;-3.70;99.90
11609;DHT22;5860;52.018;8.536;2023-03-01T06:43:31;-3.60;99.90
11609;DHT22;5860;52.018;8.536;2023-03-01T06:45:57;-3.50;99.90
11609;DHT22;5860;52.018;8.536;2023-03-01T06:48:24;-3.40;99.90
11609;DHT22;5860;52.018;8.536;2023-03-01T06:50:51;-3.40;99.90
11609;DHT22;5860;52.018;8.536;2023-03-01T06:53:18;-3.40;99.90
11609;DHT22;5860;52.018;8.536;2023-03-01T06:55:45;-3.40;99.90
11609;DHT22;5860;52.018;8.536;2023-03-01T06:58:12;-3.30;99.90
11609;DHT22;5860;52.018;8.536;2023-03-01T07:00:39;-3.20;99.90
11609;DHT22;5860;52.018;8.536;2023-03-01T07:03:08;-3.20;99.90
11609;DHT22;5860;52.018;8.536;2023-03-01T07:05:35;-3.10;99.90
11609;DHT22;5860;52.018;8.536;2023-03-01T07:08:02;-3.00;99.90
11609;DHT22;5860;52.018;8.536;2023-03-01T07:10:29;-2.90;99.90
11609;DHT22;5860;52.018;8.536;2023-03-01T07:12:57;-2.90;99.90
11609;DHT22;5860;52.018;8.536;2023-03-01T07:15:25;-2.70;99.90
11609;DHT22;5860;52.018;8.536;2023-03-01T07:17:53;-2.60;99.90
11609;DHT22;5860;52.018;8.536;2023-03-01T07:20:20;-2.50;99.90
11609;DHT22;5860;52.018;8.536;2023-03-01T07:22:53;-2.40;99.90
11609;DHT22;5860;52.018;8.536;2023-03-01T07:25:20;-2.30;99.90
11609;DHT22;5860;52.018;8.536;2023-03-01T07:27:51;-2.20;99.90
11609;DHT22;5860;52.018;8.536;2023-03-01T07:30:19;-2.20;99.90
11609;DHT22;5860;52.018;8.536;2023-03-01T07:32:47;-2.20;99.90
11609;DHT22;5860;52.018;8.536;2023-03-01T07:35:14;-2.10;99.90
11609;DHT22;5860;52.018;8.536;2023-03-01T07:37:41;-2.10;99.90
11609;DHT22;5860;52.018;8.536;2023-03-01T07:40:09;-2.10;99.90
11609;DHT22;5860;52.018;8.536;2023-03-01T07:42:36;-2.00;99.90
11609;DHT22;5860;52.018;8.536;2023-03-01T07:45:04;-2.00;99.90
11609;DHT22;5860;52.018;8.536;2023-03-01T07:47:32;-1.90;99.90
11609;DHT22;5860;52.018;8.536;2023-03-01T07:49:59;-1.80;99.90
11609;DHT22;5860;52.018;8.536;2023-03-01T07:52:28;-1.90;99.90
11609;DHT22;5860;52.018;8.536;2023-03-01T07:54:55;-1.80;99.90
11609;DHT22;5860;52.018;8.536;2023-03-01T07:57:22;-1.80;99.90
11609;DHT22;5860;52.018;8.536;2023-03-01T07:59:49;-1.70;99.90
11609;DHT22;5860;52.018;8.536;2023-03-01T08:02:16;-1.70;99.90
11609;DHT22;5860;52.018;8.536;2023-03-01T08:04:43;-1.50;99.90
11609;DHT22;5860;52.018;8.536;2023-03-01T08:07:10;-1.50;99.90
11609;DHT22;5860;52.018;8.536;2023-03-01T08:09:38;-1.40;99.90
11609;DHT22;5860;52.018;8.536;2023-03-01T08:12:06;-1.20;99.90
11609;DHT22;5860;52.018;8.536;2023-03-01T08:14:33;-1.10;99.90
11609;DHT22;5860;52.018;8.536;2023-03-01T08:17:00;-1.10;99.90
11609;DHT22;5860;52.018;8.536;2023-03-01T08:19:26;-1.00;99.90
11609;DHT22;5860;52.018;8.536;2023-03-01T08:21:54;-0.90;99.90
11609;DHT22;5860;52.018;8.536;2023-03-01T08:24:25;-0.90;99.90
11609;DHT22;5860;52.018;8.536;2023-03-01T08:26:52;-0.80;99.90
11609;DHT22;5860;52.018;8.536;2023-03-01T08:29:19;-0.70;99.90
11609;DHT22;5860;52.018;8.536;2023-03-01T08:31:47;-0.60;99.90
11609;DHT22;5860;52.018;8.536;2023-03-01T08:34:15;-0.60;99.90
11609;DHT22;5860;52.018;8.536;2023-03-01T08:36:44;-0.50;99.90
11609;DHT22;5860;52.018;8.536;2023-03-01T08:39:16;-0.40;99.90
11609;DHT22;5860;52.018;8.536;2023-03-01T08:41:43;-0.40;99.90
11609;DHT22;5860;52.018;8.536;2023-03-01T08:44:14;-0.30;99.90
11609;DHT22;5860;52.018;8.536;2023-03-01T08:46:43;-0.30;99.90
11609;DHT22;5860;52.018;8.536;2023-03-01T08:49:14;-0.30;99.90
11609;DHT22;5860;52.018;8.536;2023-03-01T08:51:42;-0.20;99.90
11609;DHT22;5860;52.018;8.536;2023-03-01T08:54:15;-0.10;99.90
11609;DHT22;5860;52.018;8.536;2023-03-01T08:56:43;0.00;99.90
11609;DHT22;5860;52.018;8.536;2023-03-01T08:59:11;0.10;99.90
11609;DHT22;5860;52.018;8.536;2023-03-01T09:01:38;0.00;99.90
11609;DHT22;5860;52.018;8.536;2023-03-01T09:04:06;0.30;99.90
11609;DHT22;5860;52.018;8.536;2023-03-01T09:06:34;0.30;99.90
11609;DHT22;5860;52.018;8.536;2023-03-01T09:09:02;0.30;99.90
11609;DHT22;5860;52.018;8.536;2023-03-01T09:11:29;0.40;99.90
11609;DHT22;5860;52.018;8.536;2023-03-01T09:13:56;0.40;99.90
11609;DHT22;5860;52.018;8.536;2023-03-01T09:16:23;0.50;99.90
11609;DHT22;5860;52.018;8.536;2023-03-01T09:18:52;0.80;99.90
11609;DHT22;5860;52.018;8.536;2023-03-01T09:21:21;0.80;99.90
11609;DHT22;5860;52.018;8.536;2023-03-01T09:24:05;0.60;99.90
11609;DHT22;5860;52.018;8.536;2023-03-01T09:26:32;0.70;99.90
11609;DHT22;5860;52.018;8.536;2023-03-01T09:28:59;1.00;99.90
11609;DHT22;5860;52.018;8.536;2023-03-01T09:31:26;1.00;99.90
11609;DHT22;5860;52.018;8.536;2023-03-01T09:33:53;1.20;99.90
11609;DHT22;5860;52.018;8.536;2023-03-01T09:36:23;1.50;99.90
11609;DHT22;5860;52.018;8.536;2023-03-01T09:38:52;1.50;99.90
11609;DHT22;5860;52.018;8.536;2023-03-01T09:41:59;1.50;99.90
11609;DHT22;5860;52.018;8.536;2023-03-01T09:44:38;1.60;99.90
11609;DHT22;5860;52.018;8.536;2023-03-01T09:47:19;1.80;99.90
11609;DHT22;5860;52.018;8.536;2023-03-01T09:52:42;2.00;99.90
11609;DHT22;5860;52.018;8.536;2023-03-01T09:55:15;2.10;99.90
11609;DHT22;5860;52.018;8.536;2023-03-01T10:00:45;2.30;99.90
11609;DHT22;5860;52.018;8.536;2023-03-01T10:06:18;2.40;99.90
11609;DHT22;5860;52.018;8.536;2023-03-01T10:09:13;2.40;99.90
11609;DHT22;5860;52.018;8.536;2023-03-01T10:11:51;2.70;99.90
11609;DHT22;5860;52.018;8.536;2023-03-01T10:14:46;2.50;99.90
11609;DHT22;5860;52.018;8.536;2023-03-01T10:17:30;2.70;99.90
11609;DHT22;5860;52.018;8.536;2023-03-01T10:20:21;2.70;99.90
11609;DHT22;5860;52.018;8.536;2023-03-01T10:22:49;2.70;99.90
11609;DHT22;5860;52.018;8.536;2023-03-01T10:26:09;2.80;99.90
11609;DHT22;5860;52.018;8.536;2023-03-01T10:28:17;2.90;99.90
11609;DHT22;5860;52.018;8.536;2023-03-01T10:30:44;2.90;99.90
11609;DHT22;5860;52.018;8.536;2023-03-01T10:33:27;2.90;99.90
11609;DHT22;5860;52.018;8.536;2023-03-01T10:35:55;3.00;99.90
11609;DHT22;5860;52.018;8.536;2023-03-01T10:38:22;3.00;99.90
11609;DHT22;5860;52.018;8.536;2023-03-01T10:40:58;3.10;99.90
11609;DHT22;5860;52.018;8.536;2023-03-01T10:43:29;3.10;99.90
11609;DHT22;5860;52.018;8.536;2023-03-01T10:45:58;3.10;99.90
11609;DHT22;5860;52.018;8.536;2023-03-01T10:48:26;3.10;99.90
11609;DHT22;5860;52.018;8.536;2023-03-01T10:53:48;3.40;99.90
11609;DHT22;5860;52.018;8.536;2023-03-01T10:56:16;3.60;99.90
11609;DHT22;5860;52.018;8.536;2023-03-01T10:59:00;3.50;99.90
11609;DHT22;5860;52.018;8.536;2023-03-01T11:01:30;3.40;99.90
11609;DHT22;5860;52.018;8.536;2023-03-01T11:06:37;3.50;99.90
11609;DHT22;5860;52.018;8.536;2023-03-01T11:09:21;3.70;99.90
11609;DHT22;5860;52.018;8.536;2023-03-01T11:11:53;3.70;99.90
11609;DHT22;5860;52.018;8.536;2023-03-01T11:14:37;3.70;99.90
11609;DHT22;5860;52.018;8.536;2023-03-01T11:17:23;3.60;99.90
11609;DHT22;5860;52.018;8.536;2023-03-01T11:22:50;3.80;99.90
11609;DHT22;5860;52.018;8.536;2023-03-01T11:25:25;3.90;99.90
11609;DHT22;5860;52.018;8.536;2023-03-01T11:27:53;4.00;99.90
11609;DHT22;5860;52.018;8.536;2023-03-01T11:30:38;3.90;99.90
11609;DHT22;5860;52.018;8.536;2023-03-01T11:33:35;3.90;99.90
11609;DHT22;5860;52.018;8.536;2023-03-01T11:36:32;4.30;99.90
11609;DHT22;5860;52.018;8.536;2023-03-01T11:39:38;4.30;99.90
11609;DHT22;5860;52.018;8.536;2023-03-01T11:42:19;4.30;99.90
11609;DHT22;5860;52.018;8.536;2023-03-01T11:44:49;4.30;99.90
11609;DHT22;5860;52.018;8.536;2023-03-01T11:50:35;4.50;99.90
11609;DHT22;5860;52.018;8.536;2023-03-01T12:06:46;4.80;99.90
11609;DHT22;5860;52.018;8.536;2023-03-01T12:09:34;4.80;99.90
11609;DHT22;5860;52.018;8.536;2023-03-01T12:29:36;4.80;99.90
11609;DHT22;5860;52.018;8.536;2023-03-01T12:46:13;4.80;99.90
11609;DHT22;5860;52.018;8.536;2023-03-01T12:48:38;4.90;99.90
11609;DHT22;5860;52.018;8.536;2023-03-01T12:51:10;5.10;99.90
11609;DHT22;5860;52.018;8.536;2023-03-01T12:53:45;4.90;99.90
11609;DHT22;5860;52.018;8.536;2023-03-01T12:56:25;5.10;99.90
11609;DHT22;5860;52.018;8.536;2023-03-01T13:07:34;5.30;99.90
11609;DHT22;5860;52.018;8.536;2023-03-01T13:10:06;5.10;99.90
11609;DHT22;5860;52.018;8.536;2023-03-01T13:12:51;5.40;99.90
11609;DHT22;5860;52.018;8.536;2023-03-01T13:15:29;5.30;99.90
11609;DHT22;5860;52.018;8.536;2023-03-01T13:28:36;5.60;99.90
11609;DHT22;5860;52.018;8.536;2023-03-01T13:31:09;5.40;99.90
11609;DHT22;5860;52.018;8.536;2023-03-01T13:33:41;5.50;99.90
11609;DHT22;5860;52.018;8.536;2023-03-01T13:36:48;5.60;99.90
11609;DHT22;5860;52.018;8.536;2023-03-01T13:39:29;5.60;99.90
11609;DHT22;5860;52.018;8.536;2023-03-01T13:41:59;5.60;99.90
11609;DHT22;5860;52.018;8.536;2023-03-01T13:44:32;5.60;99.90
11609;DHT22;5860;52.018;8.536;2023-03-01T13:54:55;5.80;99.90
11609;DHT22;5860;52.018;8.536;2023-03-01T13:57:27;5.80;99.90
11609;DHT22;5860;52.018;8.536;2023-03-01T13:59:56;5.90;99.90
11609;DHT22;5860;52.018;8.536;2023-03-01T14:02:23;5.90;99.90
11609;DHT22;5860;52.018;8.536;2023-03-01T14:04:58;5.80;99.90
11609;DHT22;5860;52.018;8.536;2023-03-01T14:07:27;5.90;99.90
11609;DHT22;5860;52.018;8.536;2023-03-01T14:09:59;5.70;99.90
11609;DHT22;5860;52.018;8.536;2023-03-01T14:15:02;5.80;99.90
11609;DHT22;5860;52.018;8.536;2023-03-01T14:20:27;5.90;99.90
11609;DHT22;5860;52.018;8.536;2023-03-01T14:22:57;5.70;99.60
11609;DHT22;5860;52.018;8.536;2023-03-01T14:25:29;5.80;99.90
11609;DHT22;5860;52.018;8.536;2023-03-01T14:28:00;5.80;99.90
11609;DHT22;5860;52.018;8.536;2023-03-01T14:30:38;5.90;99.90
11609;DHT22;5860;52.018;8.536;2023-03-01T14:33:22;5.90;99.90
11609;DHT22;5860;52.018;8.536;2023-03-01T14:38:38;5.90;99.90
11609;DHT22;5860;52.018;8.536;2023-03-01T14:41:21;5.80;99.90
11609;DHT22;5860;52.018;8.536;2023-03-01T14:44:12;5.80;99.90
11609;DHT22;5860;52.018;8.536;2023-03-01T14:46:43;5.80;99.90
11609;DHT22;5860;52.018;8.536;2023-03-01T14:49:17;5.80;99.90
11609;DHT22;5860;52.018;8.536;2023-03-01T14:54:27;5.80;98.40
11609;DHT22;5860;52.018;8.536;2023-03-01T14:56:59;5.80;98.70
11609;DHT22;5860;52.018;8.536;2023-03-01T14:59:26;5.90;99.10
11609;DHT22;5860;52.018;8.536;2023-03-01T15:01:56;6.00;99.10
11609;DHT22;5860;52.018;8.536;2023-03-01T15:04:24;6.00;98.90
11609;DHT22;5860;52.018;8.536;2023-03-01T15:06:54;6.00;98.30
11609;DHT22;5860;52.018;8.536;2023-03-01T15:09:22;5.80;98.40
11609;DHT22;5860;52.018;8.536;2023-03-01T15:11:50;6.00;98.90
11609;DHT22;5860;52.018;8.536;2023-03-01T15:14:39;5.90;99.20
11609;DHT22;5860;52.018;8.536;2023-03-01T15:17:43;5.80;99.60
11609;DHT22;5860;52.018;8.536;2023-03-01T15:20:18;5.90;99.20
11609;DHT22;5860;52.018;8.536;2023-03-01T15:22:48;5.80;98.90
11609;DHT22;5860;52.018;8.536;2023-03-01T15:25:21;5.80;99.00
11609;DHT22;5860;52.018;8.536;2023-03-01T15:27:50;5.80;99.20
11609;DHT22;5860;52.018;8.536;2023-03-01T15:30:26;5.80;99.60
11609;DHT22;5860;52.018;8.536;2023-03-01T15:35:58;5.80;99.30
11609;DHT22;5860;52.018;8.536;2023-03-01T15:38:36;5.70;99.80
11609;DHT22;5860;52.018;8.536;2023-03-01T15:41:31;5.70;99.90
11609;DHT22;5860;52.018;8.536;2023-03-01T15:44:00;5.70;99.90
11609;DHT22;5860;52.018;8.536;2023-03-01T15:46:35;5.70;99.90
11609;DHT22;5860;52.018;8.536;2023-03-01T15:51:54;5.60;99.90
11609;DHT22;5860;52.018;8.536;2023-03-01T15:54:23;5.60;99.90
11609;DHT22;5860;52.018;8.536;2023-03-01T15:56:50;5.50;99.90
11609;DHT22;5860;52.018;8.536;2023-03-01T15:59:18;5.50;99.90
11609;DHT22;5860;52.018;8.536;2023-03-01T16:01:46;5.40;99.90
11609;DHT22;5860;52.018;8.536;2023-03-01T16:04:17;5.40;99.90
11609;DHT22;5860;52.018;8.536;2023-03-01T16:06:51;5.40;99.90
11609;DHT22;5860;52.018;8.536;2023-03-01T16:09:25;5.40;99.90
11609;DHT22;5860;52.018;8.536;2023-03-01T16:11:53;5.40;99.90
11609;DHT22;5860;52.018;8.536;2023-03-01T16:14:21;5.30;99.90
11609;DHT22;5860;52.018;8.536;2023-03-01T16:16:48;5.30;99.90
11609;DHT22;5860;52.018;8.536;2023-03-01T16:19:16;5.30;99.90
11609;DHT22;5860;52.018;8.536;2023-03-01T16:21:43;5.30;99.90
11609;DHT22;5860;52.018;8.536;2023-03-01T16:24:14;5.20;99.90
11609;DHT22;5860;52.018;8.536;2023-03-01T16:26:41;5.10;99.90
11609;DHT22;5860;52.018;8.536;2023-03-01T16:29:09;5.10;99.90
11609;DHT22;5860;52.018;8.536;2023-03-01T16:31:36;5.10;99.90
11609;DHT22;5860;52.018;8.536;2023-03-01T16:34:03;5.00;99.90
11609;DHT22;5860;52.018;8.536;2023-03-01T16:36:30;4.90;99.90
11609;DHT22;5860;52.018;8.536;2023-03-01T16:38:59;4.90;99.90
11609;DHT22;5860;52.018;8.536;2023-03-01T16:41:27;4.80;99.90
11609;DHT22;5860;52.018;8.536;2023-03-01T16:43:54;4.70;99.90
11609;DHT22;5860;52.018;8.536;2023-03-01T16:46:25;4.70;99.90
11609;DHT22;5860;52.018;8.536;2023-03-01T16:48:53;4.70;99.90
11609;DHT22;5860;52.018;8.536;2023-03-01T16:51:22;4.60;99.90
11609;DHT22;5860;52.018;8.536;2023-03-01T16:53:49;4.60;99.90
11609;DHT22;5860;52.018;8.536;2023-03-01T16:56:17;4.40;99.90
11609;DHT22;5860;52.018;8.536;2023-03-01T16:58:45;4.50;99.90
11609;DHT22;5860;52.018;8.536;2023-03-01T17:01:15;4.40;99.90
11609;DHT22;5860;52.018;8.536;2023-03-01T17:03:44;4.30;99.90
11609;DHT22;5860;52.018;8.536;2023-03-01T17:06:16;4.30;99.90
11609;DHT22;5860;52.018;8.536;2023-03-01T17:08:43;4.20;99.90
11609;DHT22;5860;52.018;8.536;2023-03-01T17:11:13;4.10;99.90
11609;DHT22;5860;52.018;8.536;2023-03-01T17:13:41;4.00;99.90
11609;DHT22;5860;52.018;8.536;2023-03-01T17:16:11;4.00;99.90
11609;DHT22;5860;52.018;8.536;2023-03-01T17:18:38;3.90;99.90
11609;DHT22;5860;52.018;8.536;2023-03-01T17:21:06;3.90;99.90
11609;DHT22;5860;52.018;8.536;2023-03-01T17:23:35;3.90;99.90
11609;DHT22;5860;52.018;8.536;2023-03-01T17:26:04;3.80;99.90
11609;DHT22;5860;52.018;8.536;2023-03-01T17:28:33;3.80;99.90
11609;DHT22;5860;52.018;8.536;2023-03-01T17:31:02;3.70;99.90
11609;DHT22;5860;52.018;8.536;2023-03-01T17:33:29;3.60;99.90
11609;DHT22;5860;52.018;8.536;2023-03-01T17:35:59;3.60;99.90
11609;DHT22;5860;52.018;8.536;2023-03-01T17:38:26;3.60;99.90
11609;DHT22;5860;52.018;8.536;2023-03-01T17:40:53;3.50;99.90
11609;DHT22;5860;52.018;8.536;2023-03-01T17:43:20;3.40;99.90
11609;DHT22;5860;52.018;8.536;2023-03-01T17:45:47;3.40;99.90
11609;DHT22;5860;52.018;8.536;2023-03-01T17:48:16;3.40;99.90
11609;DHT22;5860;52.018;8.536;2023-03-01T17:50:44;3.20;99.90
11609;DHT22;5860;52.018;8.536;2023-03-01T17:53:11;3.30;99.90
11609;DHT22;5860;52.018;8.536;2023-03-01T17:55:39;3.20;99.90
11609;DHT22;5860;52.018;8.536;2023-03-01T17:58:08;3.20;99.90
11609;DHT22;5860;52.018;8.536;2023-03-01T18:00:36;3.20;99.90
11609;DHT22;5860;52.018;8.536;2023-03-01T18:03:03;3.20;99.90
11609;DHT22;5860;52.018;8.536;2023-03-01T18:05:35;3.30;99.90
11609;DHT22;5860;52.018;8.536;2023-03-01T18:08:03;3.20;99.90
11609;DHT22;5860;52.018;8.536;2023-03-01T18:10:31;3.10;99.90
11609;DHT22;5860;52.018;8.536;2023-03-01T18:12:58;3.10;99.90
11609;DHT22;5860;52.018;8.536;2023-03-01T18:15:25;3.00;99.90
11609;DHT22;5860;52.018;8.536;2023-03-01T18:17:53;3.10;99.90
11609;DHT22;5860;52.018;8.536;2023-03-01T18:20:20;3.10;99.90